sensor_id;sensor_type;location;lat;lon;timestamp;P1;durP1;ratioP1;P2;durP2;ratioP2
51010;SDS011;37038;50.182;8.624;2022-11-21T00:05:21;7.05;;;2.75;;
51010;SDS011;37038;50.182;8.624;2022-11-21T00:08:12;7.50;;;2.90;;
51010;SDS011;37038;50.182;8.624;2022-11-21T00:11:59;3.88;;;2.40;;
51010;SDS011;37038;50.182;8.624;2022-11-21T00:15:27;7.13;;;2.85;;
51010;SDS011;37038;50.182;8.624;2022-11-21T00:18:57;6.90;;;2.58;;
51010;SDS011;37038;50.182;8.624;2022-11-21T00:22:50;11.15;;;2.70;;
51010;SDS011;37038;50.182;8.624;2022-11-21T00:30:34;5.03;;;2.10;;
51010;SDS011;37038;50.182;8.624;2022-11-21T00:37:55;4.15;;;2.05;;
51010;SDS011;37038;50.182;8.624;2022-11-21T00:41:48;7.55;;;2.45;;
51010;SDS011;37038;50.182;8.624;2022-11-21T00:45:42;6.25;;;1.73;;
51010;SDS011;37038;50.182;8.624;2022-11-21T00:49:29;8.02;;;2.13;;
51010;SDS011;37038;50.182;8.624;2022-11-21T00:52:24;4.72;;;2.13;;
51010;SDS011;37038;50.182;8.624;2022-11-21T01:10:27;3.93;;;1.53;;
51010;SDS011;37038;50.182;8.624;2022-11-21T01:24:59;3.60;;;2.03;;
51010;SDS011;37038;50.182;8.624;2022-11-21T01:36:57;4.75;;;2.08;;
51010;SDS011;37038;50.182;8.624;2022-11-21T01:41:17;4.28;;;1.88;;
51010;SDS011;37038;50.182;8.624;2022-11-21T01:53:18;4.40;;;2.28;;
51010;SDS011;37038;50.182;8.624;2022-11-21T01:57:31;7.22;;;2.35;;
51010;SDS011;37038;50.182;8.624;2022-11-21T02:00:59;3.47;;;2.20;;
51010;SDS011;37038;50.182;8.624;2022-11-21T02:10:00;7.43;;;2.77;;
51010;SDS011;37038;50.182;8.624;2022-11-21T02:34:50;11.98;;;3.45;;
51010;SDS011;37038;50.182;8.624;2022-11-21T02:55:43;16.30;;;4.45;;
51010;SDS011;37038;50.182;8.624;2022-11-21T03:18:14;14.93;;;4.70;;
51010;SDS011;37038;50.182;8.624;2022-11-21T03:21:36;12.48;;;4.38;;
51010;SDS011;37038;50.182;8.624;2022-11-21T03:24:47;20.63;;;4.50;;
51010;SDS011;37038;50.182;8.624;2022-11-21T03:27:52;16.48;;;4.95;;
51010;SDS011;37038;50.182;8.624;2022-11-21T03:30:46;12.65;;;4.65;;
51010;SDS011;37038;50.182;8.624;2022-11-21T03:33:45;10.80;;;3.90;;
51010;SDS011;37038;50.182;8.624;2022-11-21T03:37:16;17.75;;;4.97;;
51010;SDS011;37038;50.182;8.624;2022-11-21T03:43:37;13.50;;;3.67;;
51010;SDS011;37038;50.182;8.624;2022-11-21T03:47:10;16.60;;;4.80;;
51010;SDS011;37038;50.182;8.624;2022-11-21T03:50:35;17.35;;;4.97;;
51010;SDS011;37038;50.182;8.624;2022-11-21T03:53:26;12.35;;;4.78;;
51010;SDS011;37038;50.182;8.624;2022-11-21T03:56:31;24.80;;;5.78;;
51010;SDS011;37038;50.182;8.624;2022-11-21T03:59:40;20.27;;;4.82;;
51010;SDS011;37038;50.182;8.624;2022-11-21T04:02:44;16.90;;;4.68;;
51010;SDS011;37038;50.182;8.624;2022-11-21T04:06:45;14.60;;;4.55;;
51010;SDS011;37038;50.182;8.624;2022-11-21T04:10:19;12.38;;;4.38;;
51010;SDS011;37038;50.182;8.624;2022-11-21T04:13:14;13.18;;;3.97;;
51010;SDS011;37038;50.182;8.624;2022-11-21T04:20:19;18.25;;;5.13;;
51010;SDS011;37038;50.182;8.624;2022-11-21T04:24:03;24.95;;;5.03;;
51010;SDS011;37038;50.182;8.624;2022-11-21T04:27:29;20.13;;;5.53;;
51010;SDS011;37038;50.182;8.624;2022-11-21T04:30:26;17.35;;;4.75;;
51010;SDS011;37038;50.182;8.624;2022-11-21T04:33:33;20.77;;;4.95;;
51010;SDS011;37038;50.182;8.624;2022-11-21T04:44:36;10.87;;;4.30;;
51010;SDS011;37038;50.182;8.624;2022-11-21T04:51:06;11.18;;;4.93;;
51010;SDS011;37038;50.182;8.624;2022-11-21T04:54:03;17.95;;;3.88;;
51010;SDS011;37038;50.182;8.624;2022-11-21T05:01:03;15.10;;;4.30;;
51010;SDS011;37038;50.182;8.624;2022-11-21T05:04:20;20.17;;;4.30;;
51010;SDS011;37038;50.182;8.624;2022-11-21T05:07:17;12.27;;;4.78;;
51010;SDS011;37038;50.182;8.624;2022-11-21T05:10:17;13.93;;;4.80;;
51010;SDS011;37038;50.182;8.624;2022-11-21T05:13:09;12.13;;;4.15;;
51010;SDS011;37038;50.182;8.624;2022-11-21T05:16:09;11.00;;;3.90;;
51010;SDS011;37038;50.182;8.624;2022-11-21T05:19:52;9.82;;;4.18;;
51010;SDS011;37038;50.182;8.624;2022-11-21T05:22:40;9.68;;;3.72;;
51010;SDS011;37038;50.182;8.624;2022-11-21T05:26:04;12.23;;;4.72;;
51010;SDS011;37038;50.182;8.624;2022-11-21T05:28:56;7.20;;;3.97;;
51010;SDS011;37038;50.182;8.624;2022-11-21T05:31:48;8.80;;;4.32;;
51010;SDS011;37038;50.182;8.624;2022-11-21T05:34:42;13.80;;;4.75;;
51010;SDS011;37038;50.182;8.624;2022-11-21T05:37:35;13.10;;;4.85;;
51010;SDS011;37038;50.182;8.624;2022-11-21T05:40:55;10.50;;;4.07;;
51010;SDS011;37038;50.182;8.624;2022-11-21T05:43:57;16.23;;;5.03;;
51010;SDS011;37038;50.182;8.624;2022-11-21T05:47:05;12.40;;;4.88;;
51010;SDS011;37038;50.182;8.624;2022-11-21T05:58:12;17.55;;;6.68;;
51010;SDS011;37038;50.182;8.624;2022-11-21T06:01:04;22.67;;;7.20;;
51010;SDS011;37038;50.182;8.624;2022-11-21T06:04:12;14.00;;;6.80;;
51010;SDS011;37038;50.182;8.624;2022-11-21T06:07:24;15.02;;;6.45;;
51010;SDS011;37038;50.182;8.624;2022-11-21T06:10:23;15.18;;;6.75;;
51010;SDS011;37038;50.182;8.624;2022-11-21T06:13:33;16.80;;;6.90;;
51010;SDS011;37038;50.182;8.624;2022-11-21T06:17:00;14.90;;;5.78;;
51010;SDS011;37038;50.182;8.624;2022-11-21T06:20:23;17.80;;;5.13;;
51010;SDS011;37038;50.182;8.624;2022-11-21T06:23:45;15.38;;;5.82;;
51010;SDS011;37038;50.182;8.624;2022-11-21T06:26:55;17.33;;;5.97;;
51010;SDS011;37038;50.182;8.624;2022-11-21T06:30:30;21.77;;;6.53;;
51010;SDS011;37038;50.182;8.624;2022-11-21T06:33:35;13.88;;;5.97;;
51010;SDS011;37038;50.182;8.624;2022-11-21T06:36:46;21.10;;;5.97;;
51010;SDS011;37038;50.182;8.624;2022-11-21T06:40:01;19.85;;;7.28;;
51010;SDS011;37038;50.182;8.624;2022-11-21T06:42:50;17.25;;;6.95;;
51010;SDS011;37038;50.182;8.624;2022-11-21T06:45:43;21.87;;;7.33;;
51010;SDS011;37038;50.182;8.624;2022-11-21T06:49:22;19.05;;;6.55;;
51010;SDS011;37038;50.182;8.624;2022-11-21T06:52:44;16.63;;;5.68;;
51010;SDS011;37038;50.182;8.624;2022-11-21T06:55:47;20.10;;;6.22;;
51010;SDS011;37038;50.182;8.624;2022-11-21T06:58:40;12.93;;;5.85;;
51010;SDS011;37038;50.182;8.624;2022-11-21T07:01:40;15.77;;;7.15;;
51010;SDS011;37038;50.182;8.624;2022-11-21T07:05:21;15.30;;;7.13;;
51010;SDS011;37038;50.182;8.624;2022-11-21T07:08:21;13.57;;;6.65;;
51010;SDS011;37038;50.182;8.624;2022-11-21T07:11:31;13.38;;;6.35;;
51010;SDS011;37038;50.182;8.624;2022-11-21T07:18:53;16.17;;;6.15;;
51010;SDS011;37038;50.182;8.624;2022-11-21T07:22:09;19.05;;;8.18;;
51010;SDS011;37038;50.182;8.624;2022-11-21T07:25:18;18.48;;;6.57;;
51010;SDS011;37038;50.182;8.624;2022-11-21T07:28:30;12.80;;;6.80;;
51010;SDS011;37038;50.182;8.624;2022-11-21T07:31:42;15.07;;;7.10;;
51010;SDS011;37038;50.182;8.624;2022-11-21T07:34:45;12.88;;;7.10;;
51010;SDS011;37038;50.182;8.624;2022-11-21T07:37:52;12.68;;;5.97;;
51010;SDS011;37038;50.182;8.624;2022-11-21T07:40:46;13.00;;;6.57;;
51010;SDS011;37038;50.182;8.624;2022-11-21T07:43:44;15.27;;;6.85;;
51010;SDS011;37038;50.182;8.624;2022-11-21T07:46:36;15.70;;;6.43;;
51010;SDS011;37038;50.182;8.624;2022-11-21T07:49:24;11.32;;;5.75;;
51010;SDS011;37038;50.182;8.624;2022-11-21T07:52:14;13.48;;;6.10;;
51010;SDS011;37038;50.182;8.624;2022-11-21T07:55:29;9.15;;;5.65;;
51010;SDS011;37038;50.182;8.624;2022-11-21T07:58:50;15.60;;;6.07;;
51010;SDS011;37038;50.182;8.624;2022-11-21T08:01:53;15.52;;;6.95;;
51010;SDS011;37038;50.182;8.624;2022-11-21T08:04:47;11.70;;;5.95;;
51010;SDS011;37038;50.182;8.624;2022-11-21T08:07:48;12.68;;;6.80;;
51010;SDS011;37038;50.182;8.624;2022-11-21T08:10:48;15.35;;;6.50;;
51010;SDS011;37038;50.182;8.624;2022-11-21T08:13:42;10.18;;;6.00;;
51010;SDS011;37038;50.182;8.624;2022-11-21T08:20:13;12.70;;;6.57;;
51010;SDS011;37038;50.182;8.624;2022-11-21T08:23:38;16.80;;;6.82;;
51010;SDS011;37038;50.182;8.624;2022-11-21T08:31:27;18.40;;;8.35;;
51010;SDS011;37038;50.182;8.624;2022-11-21T08:34:35;13.45;;;8.15;;
51010;SDS011;37038;50.182;8.624;2022-11-21T08:37:56;12.48;;;7.07;;
51010;SDS011;37038;50.182;8.624;2022-11-21T08:40:58;17.80;;;8.85;;
51010;SDS011;37038;50.182;8.624;2022-11-21T08:44:55;14.52;;;7.28;;
51010;SDS011;37038;50.182;8.624;2022-11-21T08:47:53;13.48;;;7.80;;
51010;SDS011;37038;50.182;8.624;2022-11-21T08:51:07;9.68;;;6.30;;
51010;SDS011;37038;50.182;8.624;2022-11-21T08:54:05;8.02;;;6.00;;
51010;SDS011;37038;50.182;8.624;2022-11-21T08:56:57;9.25;;;5.55;;
51010;SDS011;37038;50.182;8.624;2022-11-21T09:00:27;10.10;;;5.13;;
51010;SDS011;37038;50.182;8.624;2022-11-21T09:05:57;7.10;;;5.07;;
51010;SDS011;37038;50.182;8.624;2022-11-21T09:09:19;8.00;;;5.15;;
51010;SDS011;37038;50.182;8.624;2022-11-21T09:12:37;11.00;;;5.00;;
51010;SDS011;37038;50.182;8.624;2022-11-21T09:15:51;10.18;;;5.07;;
51010;SDS011;37038;50.182;8.624;2022-11-21T09:19:22;10.63;;;5.15;;
51010;SDS011;37038;50.182;8.624;2022-11-21T09:22:34;9.10;;;5.40;;
51010;SDS011;37038;50.182;8.624;2022-11-21T09:25:52;9.77;;;5.43;;
51010;SDS011;37038;50.182;8.624;2022-11-21T09:28:45;12.52;;;6.47;;
51010;SDS011;37038;50.182;8.624;2022-11-21T09:39:31;11.10;;;5.10;;
51010;SDS011;37038;50.182;8.624;2022-11-21T10:00:52;6.90;;;3.70;;
51010;SDS011;37038;50.182;8.624;2022-11-21T10:29:51;3.50;;;2.42;;
51010;SDS011;37038;50.182;8.624;2022-11-21T10:44:44;4.00;;;2.40;;
51010;SDS011;37038;50.182;8.624;2022-11-21T10:48:41;3.83;;;1.95;;
51010;SDS011;37038;50.182;8.624;2022-11-21T10:53:17;5.70;;;2.47;;
51010;SDS011;37038;50.182;8.624;2022-11-21T10:57:18;5.90;;;2.35;;
51010;SDS011;37038;50.182;8.624;2022-11-21T11:01:35;5.43;;;2.45;;
51010;SDS011;37038;50.182;8.624;2022-11-21T11:09:29;5.38;;;2.35;;
51010;SDS011;37038;50.182;8.624;2022-11-21T11:13:25;5.03;;;1.98;;
51010;SDS011;37038;50.182;8.624;2022-11-21T11:17:35;4.07;;;2.35;;
51010;SDS011;37038;50.182;8.624;2022-11-21T11:30:05;3.97;;;2.25;;
51010;SDS011;37038;50.182;8.624;2022-11-21T11:37:01;6.53;;;2.72;;
51010;SDS011;37038;50.182;8.624;2022-11-21T11:40:28;4.57;;;2.40;;
51010;SDS011;37038;50.182;8.624;2022-11-21T11:47:57;9.93;;;2.22;;
51010;SDS011;37038;50.182;8.624;2022-11-21T11:51:27;5.30;;;2.45;;
51010;SDS011;37038;50.182;8.624;2022-11-21T11:54:55;7.97;;;2.65;;
51010;SDS011;37038;50.182;8.624;2022-11-21T11:58:16;7.00;;;2.45;;
51010;SDS011;37038;50.182;8.624;2022-11-21T12:05:36;7.80;;;2.15;;
51010;SDS011;37038;50.182;8.624;2022-11-21T12:13:26;4.55;;;2.10;;
51010;SDS011;37038;50.182;8.624;2022-11-21T12:16:51;5.72;;;2.60;;
51010;SDS011;37038;50.182;8.624;2022-11-21T12:23:54;6.35;;;2.25;;
51010;SDS011;37038;50.182;8.624;2022-11-21T12:27:42;9.27;;;2.50;;
51010;SDS011;37038;50.182;8.624;2022-11-21T12:42:08;4.35;;;2.03;;
51010;SDS011;37038;50.182;8.624;2022-11-21T12:45:37;9.90;;;2.47;;
51010;SDS011;37038;50.182;8.624;2022-11-21T12:52:35;2.60;;;1.60;;
51010;SDS011;37038;50.182;8.624;2022-11-21T12:55:50;2.90;;;1.83;;
51010;SDS011;37038;50.182;8.624;2022-11-21T12:58:56;6.95;;;2.38;;
51010;SDS011;37038;50.182;8.624;2022-11-21T13:02:02;7.43;;;2.60;;
51010;SDS011;37038;50.182;8.624;2022-11-21T13:05:35;8.88;;;1.73;;
51010;SDS011;37038;50.182;8.624;2022-11-21T13:09:14;3.53;;;1.70;;
51010;SDS011;37038;50.182;8.624;2022-11-21T13:16:19;6.78;;;1.85;;
51010;SDS011;37038;50.182;8.624;2022-11-21T13:19:40;7.55;;;1.40;;
51010;SDS011;37038;50.182;8.624;2022-11-21T13:31:30;4.57;;;1.80;;
51010;SDS011;37038;50.182;8.624;2022-11-21T13:34:35;4.40;;;2.15;;
51010;SDS011;37038;50.182;8.624;2022-11-21T13:40:59;7.10;;;2.30;;
51010;SDS011;37038;50.182;8.624;2022-11-21T13:47:35;7.75;;;2.78;;
51010;SDS011;37038;50.182;8.624;2022-11-21T14:06:34;7.25;;;2.33;;
51010;SDS011;37038;50.182;8.624;2022-11-21T14:09:52;6.55;;;2.10;;
51010;SDS011;37038;50.182;8.624;2022-11-21T14:12:53;6.88;;;2.42;;
51010;SDS011;37038;50.182;8.624;2022-11-21T14:16:38;6.28;;;2.08;;
51010;SDS011;37038;50.182;8.624;2022-11-21T14:23:56;6.75;;;2.15;;
51010;SDS011;37038;50.182;8.624;2022-11-21T14:27:54;5.45;;;2.00;;
51010;SDS011;37038;50.182;8.624;2022-11-21T14:34:10;7.82;;;2.25;;
51010;SDS011;37038;50.182;8.624;2022-11-21T14:38:05;5.65;;;1.85;;
51010;SDS011;37038;50.182;8.624;2022-11-21T14:46:27;4.50;;;2.47;;
51010;SDS011;37038;50.182;8.624;2022-11-21T14:51:07;7.75;;;2.35;;
51010;SDS011;37038;50.182;8.624;2022-11-21T14:55:04;5.15;;;2.42;;
51010;SDS011;37038;50.182;8.624;2022-11-21T14:59:24;7.85;;;3.03;;
51010;SDS011;37038;50.182;8.624;2022-11-21T15:02:42;10.55;;;3.45;;
51010;SDS011;37038;50.182;8.624;2022-11-21T15:06:11;7.30;;;2.95;;
51010;SDS011;37038;50.182;8.624;2022-11-21T15:09:35;10.63;;;3.65;;
51010;SDS011;37038;50.182;8.624;2022-11-21T15:47:25;9.52;;;4.15;;
51010;SDS011;37038;50.182;8.624;2022-11-21T15:56:29;14.57;;;5.68;;
51010;SDS011;37038;50.182;8.624;2022-11-21T16:27:35;10.23;;;5.10;;
51010;SDS011;37038;50.182;8.624;2022-11-21T16:32:30;13.03;;;5.20;;
51010;SDS011;37038;50.182;8.624;2022-11-21T16:41:19;10.73;;;5.50;;
51010;SDS011;37038;50.182;8.624;2022-11-21T16:54:08;15.50;;;8.55;;
51010;SDS011;37038;50.182;8.624;2022-11-21T16:58:28;15.57;;;9.27;;
51010;SDS011;37038;50.182;8.624;2022-11-21T17:15:40;16.60;;;7.55;;
51010;SDS011;37038;50.182;8.624;2022-11-21T18:13:10;13.15;;;7.68;;
51010;SDS011;37038;50.182;8.624;2022-11-21T18:16:54;15.50;;;8.07;;
51010;SDS011;37038;50.182;8.624;2022-11-21T18:28:07;12.80;;;7.60;;
51010;SDS011;37038;50.182;8.624;2022-11-21T18:31:47;14.52;;;8.45;;
51010;SDS011;37038;50.182;8.624;2022-11-21T18:35:34;17.33;;;7.18;;
51010;SDS011;37038;50.182;8.624;2022-11-21T18:38:48;16.67;;;8.07;;
51010;SDS011;37038;50.182;8.624;2022-11-21T18:46:05;14.65;;;8.05;;
51010;SDS011;37038;50.182;8.624;2022-11-21T18:49:13;16.88;;;8.48;;
51010;SDS011;37038;50.182;8.624;2022-11-21T18:52:28;18.27;;;7.55;;
51010;SDS011;37038;50.182;8.624;2022-11-21T18:55:25;15.02;;;7.18;;
51010;SDS011;37038;50.182;8.624;2022-11-21T18:59:08;13.07;;;7.35;;
51010;SDS011;37038;50.182;8.624;2022-11-21T19:02:23;11.30;;;6.75;;
51010;SDS011;37038;50.182;8.624;2022-11-21T19:05:33;15.20;;;7.50;;
51010;SDS011;37038;50.182;8.624;2022-11-21T19:08:56;11.38;;;6.88;;
51010;SDS011;37038;50.182;8.624;2022-11-21T19:12:24;14.20;;;7.40;;
51010;SDS011;37038;50.182;8.624;2022-11-21T19:15:35;13.18;;;6.40;;
51010;SDS011;37038;50.182;8.624;2022-11-21T19:18:51;15.20;;;7.07;;
51010;SDS011;37038;50.182;8.624;2022-11-21T19:22:10;13.82;;;6.18;;
51010;SDS011;37038;50.182;8.624;2022-11-21T19:25:12;14.57;;;6.28;;
51010;SDS011;37038;50.182;8.624;2022-11-21T19:28:47;14.18;;;5.93;;
51010;SDS011;37038;50.182;8.624;2022-11-21T19:35:15;13.57;;;7.00;;
51010;SDS011;37038;50.182;8.624;2022-11-21T19:38:48;13.98;;;6.53;;
51010;SDS011;37038;50.182;8.624;2022-11-21T19:42:01;12.60;;;6.85;;
51010;SDS011;37038;50.182;8.624;2022-11-21T19:45:06;19.23;;;6.07;;
51010;SDS011;37038;50.182;8.624;2022-11-21T19:48:33;13.27;;;5.85;;
51010;SDS011;37038;50.182;8.624;2022-11-21T19:52:20;12.75;;;6.78;;
51010;SDS011;37038;50.182;8.624;2022-11-21T19:56:05;13.77;;;7.03;;
51010;SDS011;37038;50.182;8.624;2022-11-21T19:59:16;10.07;;;6.03;;
51010;SDS011;37038;50.182;8.624;2022-11-21T20:02:41;15.98;;;7.35;;
51010;SDS011;37038;50.182;8.624;2022-11-21T20:05:57;16.50;;;7.85;;
51010;SDS011;37038;50.182;8.624;2022-11-21T20:10:19;14.27;;;7.28;;
51010;SDS011;37038;50.182;8.624;2022-11-21T20:14:02;13.50;;;6.65;;
51010;SDS011;37038;50.182;8.624;2022-11-21T20:17:22;12.93;;;7.53;;
51010;SDS011;37038;50.182;8.624;2022-11-21T20:25:18;18.63;;;8.07;;
51010;SDS011;37038;50.182;8.624;2022-11-21T20:37:19;12.77;;;6.75;;
51010;SDS011;37038;50.182;8.624;2022-11-21T20:40:46;14.10;;;5.95;;
51010;SDS011;37038;50.182;8.624;2022-11-21T20:44:28;14.43;;;6.68;;
51010;SDS011;37038;50.182;8.624;2022-11-21T20:48:40;13.70;;;5.70;;
51010;SDS011;37038;50.182;8.624;2022-11-21T21:05:13;16.88;;;8.05;;
51010;SDS011;37038;50.182;8.624;2022-11-21T21:17:26;19.42;;;7.40;;
51010;SDS011;37038;50.182;8.624;2022-11-21T21:20:31;8.68;;;5.75;;
51010;SDS011;37038;50.182;8.624;2022-11-21T21:23:43;9.82;;;5.32;;
51010;SDS011;37038;50.182;8.624;2022-11-21T21:26:38;8.13;;;5.32;;
51010;SDS011;37038;50.182;8.624;2022-11-21T21:29:39;11.23;;;5.22;;
51010;SDS011;37038;50.182;8.624;2022-11-21T21:32:28;11.15;;;5.63;;
51010;SDS011;37038;50.182;8.624;2022-11-21T21:35:23;12.02;;;5.18;;
51010;SDS011;37038;50.182;8.624;2022-11-21T21:38:25;13.93;;;6.22;;
51010;SDS011;37038;50.182;8.624;2022-11-21T21:42:04;11.00;;;6.47;;
51010;SDS011;37038;50.182;8.624;2022-11-21T21:45:04;14.20;;;5.65;;
51010;SDS011;37038;50.182;8.624;2022-11-21T21:47:55;12.65;;;5.15;;
51010;SDS011;37038;50.182;8.624;2022-11-21T21:50:43;15.20;;;5.32;;
51010;SDS011;37038;50.182;8.624;2022-11-21T21:53:35;15.02;;;6.28;;
51010;SDS011;37038;50.182;8.624;2022-11-21T22:03:21;17.23;;;6.45;;
51010;SDS011;37038;50.182;8.624;2022-11-21T22:06:46;11.30;;;6.20;;
51010;SDS011;37038;50.182;8.624;2022-11-21T22:19:23;13.30;;;6.10;;
51010;SDS011;37038;50.182;8.624;2022-11-21T22:27:59;9.80;;;5.32;;
51010;SDS011;37038;50.182;8.624;2022-11-21T22:32:12;17.75;;;6.43;;
51010;SDS011;37038;50.182;8.624;2022-11-21T22:37:17;10.35;;;6.40;;
51010;SDS011;37038;50.182;8.624;2022-11-21T22:45:51;14.48;;;7.70;;
51010;SDS011;37038;50.182;8.624;2022-11-21T23:11:00;11.00;;;6.43;;
51010;SDS011;37038;50.182;8.624;2022-11-21T23:14:27;13.82;;;7.15;;
51010;SDS011;37038;50.182;8.624;2022-11-21T23:20:50;14.70;;;6.95;;
51010;SDS011;37038;50.182;8.624;2022-11-21T23:23:57;21.27;;;7.65;;
51010;SDS011;37038;50.182;8.624;2022-11-21T23:27:04;17.90;;;7.43;;
51010;SDS011;37038;50.182;8.624;2022-11-21T23:29:56;16.33;;;7.13;;
51010;SDS011;37038;50.182;8.624;2022-11-21T23:39:22;16.07;;;7.37;;
51010;SDS011;37038;50.182;8.624;2022-11-21T23:42:36;10.27;;;6.50;;
51010;SDS011;37038;50.182;8.624;2022-11-21T23:46:09;12.05;;;6.85;;
51010;SDS011;37038;50.182;8.624;2022-11-21T23:50:17;13.13;;;7.90;;
51010;SDS011;37038;50.182;8.624;2022-11-21T23:53:52;10.55;;;6.47;;
